Time;durP1;ratioP1;P1;durP2;ratioP2;P2;SDS_P1;SDS_P2;PMS_P1;PMS_P2;Temp;Humidity;BMP_temperature;BMP_pressure;BME280_temperature;BME280_humidity;BME280_pressure;Samples;Min_cycle;Max_cycle;Signal;HPM_P1;HPM_P2
2023/12/07 00:02:24;;;;;;;22.15;9.77;;;;;;;-5.51;100.00;100374.13;5117889;28;20091;-61
2023/12/07 00:04:50;;;;;;;21.95;9.50;;;;;;;-5.70;100.00;100381.44;5118654;28;20432;-66
2023/12/07 00:07:16;;;;;;;26.92;11.32;;;;;;;-5.36;100.00;100402.31;5116608;28;20095;-62
2023/12/07 00:09:43;;;;;;;24.08;10.18;;;;;;;-5.62;100.00;100374.94;5119175;28;20087;-65
2023/12/07 00:12:09;;;;;;;22.92;10.57;;;;;;;-5.56;100.00;100383.91;5116480;28;20429;-64
2023/12/07 00:14:35;;;;;;;20.52;10.15;;;;;;;-5.43;100.00;100383.69;5118995;28;20109;-63
2023/12/07 00:17:02;;;;;;;11.68;5.75;;;;;;;-5.54;100.00;100363.91;5116522;28;20094;-63
2023/12/07 00:19:29;;;;;;;23.98;10.05;;;;;;;-5.59;100.00;100363.78;5118997;28;20082;-62
2023/12/07 00:21:56;;;;;;;20.63;9.68;;;;;;;-5.55;100.00;100372.16;5116394;28;20051;-64
2023/12/07 00:24:22;;;;;;;19.92;8.77;;;;;;;-5.73;100.00;100367.69;5119104;28;20094;-62
2023/12/07 00:26:49;;;;;;;20.10;8.95;;;;;;;-5.52;100.00;100377.84;5116331;28;20152;-63
2023/12/07 00:29:15;;;;;;;22.58;8.48;;;;;;;-5.77;100.00;100359.31;5118621;28;20051;-61
2023/12/07 00:31:42;;;;;;;22.58;9.13;;;;;;;-5.59;100.00;100374.47;5116687;28;20109;-62
2023/12/07 00:34:09;;;;;;;17.92;9.00;;;;;;;-5.56;100.00;100371.34;5116373;28;20094;-65
2023/12/07 00:36:36;;;;;;;26.73;10.32;;;;;;;-5.67;100.00;100370.25;5118607;28;20048;-65
2023/12/07 00:39:04;;;;;;;17.20;8.40;;;;;;;-5.77;100.00;100377.19;5116017;28;20056;-62
2023/12/07 00:41:30;;;;;;;20.33;9.70;;;;;;;-5.50;100.00;100388.31;5117697;28;20047;-63
2023/12/07 00:43:56;;;;;;;25.45;10.48;;;;;;;-5.47;100.00;100372.63;5115995;28;20083;-63
2023/12/07 00:46:23;;;;;;;17.35;7.47;;;;;;;-5.59;100.00;100361.13;5118534;28;20135;-64
2023/12/07 00:48:49;;;;;;;25.77;9.18;;;;;;;-5.80;100.00;100333.06;5116110;28;20109;-62
2023/12/07 00:51:15;;;;;;;20.75;9.02;;;;;;;-5.57;100.00;100332.28;5118519;28;20056;-65
2023/12/07 00:53:42;;;;;;;24.08;10.20;;;;;;;-5.36;100.00;100316.78;5115939;28;20362;-63
2023/12/07 00:56:09;;;;;;;22.33;9.57;;;;;;;-5.65;100.00;100265.84;5118368;28;20066;-63
2023/12/07 00:58:36;;;;;;;9.75;5.80;;;;;;;-5.90;100.00;100268.72;5115817;28;20341;-66
2023/12/07 01:01:03;;;;;;;23.08;7.78;;;;;;;-5.72;100.00;100319.38;5116093;28;20385;-63
2023/12/07 01:03:29;;;;;;;13.60;7.20;;;;;;;-6.17;100.00;100292.34;5118199;28;20055;-63
2023/12/07 01:05:56;;;;;;;18.88;7.82;;;;;;;-5.71;100.00;100353.06;5115722;28;20059;-61
2023/12/07 01:08:22;;;;;;;22.00;9.88;;;;;;;-5.61;100.00;100339.16;5117699;28;20051;-62
2023/12/07 01:10:49;;;;;;;24.50;11.23;;;;;;;-5.70;100.00;100319.97;5115662;28;20116;-65
2023/12/07 01:13:15;;;;;;;11.07;5.60;;;;;;;-5.95;100.00;100287.31;5117829;28;20377;-62
2023/12/07 01:15:42;;;;;;;21.58;9.50;;;;;;;-5.79;100.00;100308.00;5115500;28;20146;-65
2023/12/07 01:18:08;;;;;;;24.77;9.85;;;;;;;-5.50;100.00;100317.00;5118205;28;20087;-61
2023/12/07 01:20:34;;;;;;;19.20;8.40;;;;;;;-5.71;100.00;100266.78;5115476;28;20051;-65
2023/12/07 01:23:01;;;;;;;13.43;5.60;;;;;;;-6.13;100.00;100239.31;5117995;28;20142;-63
2023/12/07 01:25:27;;;;;;;14.65;6.72;;;;;;;-6.06;100.00;100264.91;5115628;28;20130;-62
2023/12/07 01:27:54;;;;;;;20.98;8.88;;;;;;;-6.04;100.00;100304.69;5116809;28;20055;-65
2023/12/07 01:30:21;;;;;;;12.13;6.18;;;;;;;-5.99;100.00;100324.34;5116957;28;20091;-65
2023/12/07 01:32:47;;;;;;;11.55;7.10;;;;;;;-6.11;100.00;100309.31;5115800;28;20110;-61
2023/12/07 01:35:14;;;;;;;24.63;9.98;;;;;;;-6.11;100.00;100320.00;5117609;28;20067;-61
2023/12/07 01:37:40;;;;;;;18.80;8.73;;;;;;;-6.06;100.00;100320.16;5115386;28;20087;-64
2023/12/07 01:40:10;;;;;;;24.65;10.27;;;;;;;-6.12;100.00;100318.38;5117648;28;20059;-66
2023/12/07 01:42:37;;;;;;;33.15;8.48;;;;;;;-6.08;100.00;100327.56;5115158;28;20051;-63
2023/12/07 01:45:05;;;;;;;18.00;8.52;;;;;;;-6.05;100.00;100327.09;5117501;28;20417;-63
2023/12/07 01:47:33;;;;;;;16.85;7.90;;;;;;;-6.17;100.00;100311.03;5115126;28;20052;-63
2023/12/07 01:50:00;;;;;;;24.08;9.13;;;;;;;-6.11;100.00;100328.00;5117607;28;20425;-65
2023/12/07 01:52:28;;;;;;;22.08;9.20;;;;;;;-5.92;100.00;100316.22;5114881;28;20466;-63
2023/12/07 01:54:54;;;;;;;22.73;9.95;;;;;;;-5.92;100.00;100301.00;5116221;28;20106;-63
2023/12/07 01:57:21;;;;;;;22.33;8.93;;;;;;;-5.96;100.00;100305.19;5116400;28;20055;-61
2023/12/07 01:59:49;;;;;;;24.58;9.18;;;;;;;-6.24;100.00;100297.78;5114842;28;20425;-64
2023/12/07 02:02:16;;;;;;;20.67;9.25;;;;;;;-6.07;100.00;100294.47;5117001;28;20090;-65
2023/12/07 02:04:42;;;;;;;19.73;9.25;;;;;;;-6.12;100.00;100299.69;5115264;28;20451;-64
2023/12/07 02:07:10;;;;;;;23.25;9.60;;;;;;;-6.14;100.00;100307.91;5116837;28;20094;-61
2023/12/07 02:09:36;;;;;;;16.13;7.30;;;;;;;-5.84;100.00;100315.88;5114885;28;20063;-65
2023/12/07 02:12:03;;;;;;;22.85;9.65;;;;;;;-5.86;100.00;100280.59;5117417;28;20138;-64
2023/12/07 02:14:29;;;;;;;17.85;8.60;;;;;;;-6.08;100.00;100250.16;5114866;28;20098;-63
2023/12/07 02:17:02;;;;;;;16.25;8.82;;;;;;;-6.05;100.00;100257.69;5117286;28;20112;-63
2023/12/07 02:19:52;;;;;;;19.00;6.93;;;;;;;-6.11;100.00;100247.94;5114591;28;20108;-61
2023/12/07 02:22:25;;;;;;;21.83;8.77;;;;;;;-5.81;100.00;100259.31;5114571;28;20138;-62
2023/12/07 02:25:07;;;;;;;22.05;9.05;;;;;;;-5.86;100.00;100275.25;5116737;28;20066;-64
2023/12/07 02:27:36;;;;;;;16.90;7.38;;;;;;;-6.11;100.00;100247.94;5114728;28;20380;-62
2023/12/07 02:30:04;;;;;;;21.35;8.77;;;;;;;-6.13;100.00;100250.00;5117107;28;20090;-62
2023/12/07 02:32:30;;;;;;;19.30;8.23;;;;;;;-6.23;100.00;100251.41;5114403;28;20459;-63
2023/12/07 02:34:56;;;;;;;11.77;5.07;;;;;;;-6.35;100.00;100266.53;5116891;28;20051;-65
2023/12/07 02:37:27;;;;;;;25.52;9.52;;;;;;;-6.07;100.00;100300.63;5114346;28;20048;-62
2023/12/07 02:39:56;;;;;;;14.02;7.35;;;;;;;-6.32;100.00;100254.59;5115803;28;20108;-63
2023/12/07 02:42:24;;;;;;;23.05;9.40;;;;;;;-6.06;100.00;100291.59;5116293;28;20066;-62
2023/12/07 02:44:53;;;;;;;21.80;8.40;;;;;;;-6.01;100.00;100272.22;5114468;28;20052;-61
2023/12/07 02:47:20;;;;;;;24.50;9.60;;;;;;;-5.94;100.00;100257.72;5116538;28;20098;-63
2023/12/07 02:49:46;;;;;;;20.50;9.38;;;;;;;-6.05;100.00;100236.34;5114226;28;20087;-65
2023/12/07 02:52:13;;;;;;;20.00;8.70;;;;;;;-6.23;100.00;100226.53;5116514;28;20450;-64
2023/12/07 02:54:39;;;;;;;22.05;9.32;;;;;;;-6.08;100.00;100266.16;5114344;28;20095;-62
2023/12/07 02:57:05;;;;;;;20.92;7.82;;;;;;;-6.17;100.00;100266.47;5116548;28;20087;-66
2023/12/07 02:59:31;;;;;;;18.70;5.10;;;;;;;-6.44;100.00;100265.22;5114128;28;20062;-61
2023/12/07 03:01:58;;;;;;;23.10;9.02;;;;;;;-6.06;100.00;100312.94;5116579;28;20200;-64
2023/12/07 03:04:25;;;;;;;18.90;8.05;;;;;;;-6.00;100.00;100306.72;5116471;28;20075;-61
2023/12/07 03:06:51;;;;;;;19.38;8.82;;;;;;;-6.03;100.00;100277.78;5118974;28;20060;-64
2023/12/07 03:09:17;;;;;;;24.55;9.75;;;;;;;-5.80;100.00;100252.13;5118411;28;20494;-64
2023/12/07 03:11:44;;;;;;;23.27;9.57;;;;;;;-6.26;100.00;100235.03;5117796;28;20060;-61
2023/12/07 03:14:10;;;;;;;21.52;9.35;;;;;;;-6.14;100.00;100254.53;5119729;28;20086;-65
2023/12/07 03:16:36;;;;;;;25.20;9.80;;;;;;;-6.20;100.00;100250.09;5117506;28;20139;-61
2023/12/07 03:19:03;;;;;;;26.95;10.75;;;;;;;-6.19;100.00;100265.91;5119762;28;20086;-63
2023/12/07 03:21:30;;;;;;;22.80;9.35;;;;;;;-6.37;100.00;100265.13;5117573;28;20083;-63
2023/12/07 03:23:56;;;;;;;21.85;9.63;;;;;;;-6.25;100.00;100290.03;5119725;28;20401;-62
2023/12/07 03:26:22;;;;;;;17.77;8.32;;;;;;;-6.53;100.00;100293.25;5117301;28;20078;-64
2023/12/07 03:28:48;;;;;;;20.92;8.65;;;;;;;-6.10;100.00;100333.09;5119876;28;20160;-61
2023/12/07 03:31:15;;;;;;;22.08;9.52;;;;;;;-6.27;100.00;100313.44;5117239;28;20102;-65
2023/12/07 03:33:42;;;;;;;20.23;9.50;;;;;;;-6.02;100.00;100313.31;5119982;28;20443;-64
2023/12/07 03:36:11;;;;;;;25.85;9.85;;;;;;;-6.04;100.00;100283.34;5117310;28;20152;-61
2023/12/07 03:38:38;;;;;;;19.55;9.48;;;;;;;-6.35;100.00;100255.06;5117370;28;20067;-61
2023/12/07 03:41:04;;;;;;;21.17;9.60;;;;;;;-6.31;100.00;100259.72;5119738;28;20087;-65
2023/12/07 03:43:30;;;;;;;24.77;10.02;;;;;;;-6.46;100.00;100272.66;5117241;28;20102;-65
2023/12/07 03:45:57;;;;;;;23.90;8.23;;;;;;;-6.55;100.00;100298.00;5119316;28;20101;-61
2023/12/07 03:48:23;;;;;;;25.33;10.32;;;;;;;-6.71;100.00;100320.75;5117120;28;20047;-64
2023/12/07 03:50:49;;;;;;;26.58;10.55;;;;;;;-6.50;100.00;100372.84;5119300;28;20086;-61
2023/12/07 03:53:16;;;;;;;23.60;10.10;;;;;;;-6.56;100.00;100385.22;5116986;28;20110;-64
2023/12/07 03:55:43;;;;;;;26.75;11.25;;;;;;;-6.47;100.00;100394.53;5119264;28;20051;-65
2023/12/07 03:58:09;;;;;;;17.95;6.72;;;;;;;-6.74;100.00;100396.69;5116813;28;20074;-62
2023/12/07 04:00:35;;;;;;;21.45;9.02;;;;;;;-6.82;100.00;100420.19;5119332;28;20087;-64
2023/12/07 04:03:02;;;;;;;28.60;10.70;;;;;;;-6.45;100.00;100450.38;5116946;28;20180;-63
2023/12/07 04:05:28;;;;;;;20.58;10.20;;;;;;;-6.75;100.00;100452.94;5117580;28;20059;-62
2023/12/07 04:07:54;;;;;;;28.45;11.90;;;;;;;-6.49;100.00;100475.88;5118296;28;20091;-64
2023/12/07 04:10:21;;;;;;;21.75;11.25;;;;;;;-6.04;100.00;100480.91;5116826;28;20067;-61
2023/12/07 04:12:48;;;;;;;34.55;11.25;;;;;;;-6.45;100.00;100431.69;5118816;28;20055;-65
2023/12/07 04:15:14;;;;;;;22.67;9.82;;;;;;;-6.74;100.00;100419.88;5116233;28;20113;-62
2023/12/07 04:17:40;;;;;;;26.02;10.30;;;;;;;-6.57;100.00;100438.78;5118847;28;20422;-64
2023/12/07 04:20:09;;;;;;;21.92;9.27;;;;;;;-6.46;100.00;100440.75;5116731;28;20059;-63
2023/12/07 04:22:35;;;;;;;18.95;7.80;;;;;;;-6.50;100.00;100427.00;5118934;28;20055;-63
2023/12/07 04:25:01;;;;;;;24.02;10.95;;;;;;;-6.40;100.00;100435.34;5116373;28;20055;-63
2023/12/07 04:27:28;;;;;;;21.83;9.45;;;;;;;-6.72;100.00;100415.97;5118830;28;20063;-61
2023/12/07 04:29:55;;;;;;;25.33;10.55;;;;;;;-6.37;100.00;100435.91;5116195;28;20116;-63
2023/12/07 04:32:21;;;;;;;23.70;10.60;;;;;;;-6.29;100.00;100436.44;5118216;28;20105;-62
2023/12/07 04:34:47;;;;;;;17.85;8.63;;;;;;;-6.36;100.00;100432.19;5116895;28;20159;-65
2023/12/07 04:37:14;;;;;;;27.42;11.50;;;;;;;-6.39;100.00;100420.13;5099647;28;20055;-63
2023/12/07 04:39:40;;;;;;;29.60;11.88;;;;;;;-6.18;100.00;100421.53;5118325;28;20409;-62
2023/12/07 04:42:06;;;;;;;21.38;9.98;;;;;;;-6.54;100.00;100385.81;5116178;28;20101;-64
2023/12/07 04:44:33;;;;;;;28.90;11.55;;;;;;;-6.08;100.00;100410.31;5118035;28;20085;-61
2023/12/07 04:47:00;;;;;;;24.33;9.27;;;;;;;-6.48;100.00;100379.59;5116050;28;20138;-65
2023/12/07 04:49:27;;;;;;;21.38;8.80;;;;;;;-6.66;100.00;100398.28;5118422;28;20121;-64
2023/12/07 04:51:53;;;;;;;25.60;9.73;;;;;;;-6.71;100.00;100428.25;5116080;28;20329;-62
2023/12/07 04:54:20;;;;;;;30.17;12.15;;;;;;;-6.39;100.00;100468.16;5118309;28;20062;-65
2023/12/07 04:56:46;;;;;;;35.00;11.90;;;;;;;-6.39;100.00;100470.84;5115769;28;20386;-62
2023/12/07 04:59:12;;;;;;;31.92;12.55;;;;;;;-6.31;100.00;100465.19;5118221;28;20051;-63
2023/12/07 05:01:39;;;;;;;35.13;12.55;;;;;;;-6.26;100.00;100457.34;5115622;28;20088;-64
2023/12/07 05:04:06;;;;;;;24.13;8.85;;;;;;;-6.33;100.00;100445.94;5115581;28;20120;-61
2023/12/07 05:06:32;;;;;;;32.35;12.27;;;;;;;-6.12;100.00;100451.84;5117664;28;20051;-63
2023/12/07 05:08:59;;;;;;;34.10;12.95;;;;;;;-6.20;100.00;100435.13;5115308;28;20314;-64
2023/12/07 05:11:25;;;;;;;25.15;9.77;;;;;;;-6.64;100.00;100437.00;5117673;28;20325;-63
2023/12/07 05:13:51;;;;;;;32.25;13.00;;;;;;;-6.28;100.00;100490.63;5114945;28;20098;-59
2023/12/07 05:16:18;;;;;;;31.70;12.02;;;;;;;-6.39;100.00;100494.84;5117797;28;20065;-66
2023/12/07 05:18:45;;;;;;;29.80;12.18;;;;;;;-6.37;100.00;100513.28;5115324;28;20051;-60
2023/12/07 05:21:11;;;;;;;27.13;11.07;;;;;;;-6.22;100.00;100537.78;5117768;28;20055;-63
2023/12/07 05:23:38;;;;;;;30.90;12.93;;;;;;;-6.45;100.00;100554.44;5115546;28;20066;-63
2023/12/07 05:26:05;;;;;;;33.28;12.63;;;;;;;-6.13;100.00;100583.69;5116860;28;20059;-58
2023/12/07 05:28:31;;;;;;;35.63;12.30;;;;;;;-6.19;100.00;100570.19;5115050;28;20341;-60
2023/12/07 05:30:57;;;;;;;30.92;12.25;;;;;;;-6.30;100.00;100546.88;5116468;28;20093;-62
2023/12/07 05:33:24;;;;;;;30.48;11.73;;;;;;;-6.33;100.00;100550.00;5116518;28;20055;-61
2023/12/07 05:35:51;;;;;;;16.38;7.85;;;;;;;-6.56;100.00;100526.63;5114771;28;20433;-64
2023/12/07 05:38:18;;;;;;;38.67;12.70;;;;;;;-6.37;100.00;100546.13;5117082;28;20047;-62
2023/12/07 05:40:44;;;;;;;33.97;11.15;;;;;;;-6.43;100.00;100558.50;5114879;28;20098;-63
2023/12/07 05:43:10;;;;;;;34.47;13.35;;;;;;;-6.36;100.00;100542.44;5117342;28;20147;-61
2023/12/07 05:45:37;;;;;;;31.15;12.50;;;;;;;-6.55;100.00;100544.25;5115136;28;20095;-64
2023/12/07 05:48:03;;;;;;;27.20;10.82;;;;;;;-6.73;100.00;100536.19;5117477;28;20048;-61
2023/12/07 05:50:30;;;;;;;32.03;11.43;;;;;;;-6.64;100.00;100559.69;5114603;28;20083;-61
2023/12/07 05:52:57;;;;;;;30.88;11.77;;;;;;;-6.47;100.00;100567.97;5117285;28;20094;-61
2023/12/07 05:55:23;;;;;;;35.53;12.38;;;;;;;-6.49;100.00;100580.72;5114584;28;20383;-60
2023/12/07 05:57:50;;;;;;;18.13;7.95;;;;;;;-6.31;100.00;100577.28;5117138;28;20055;-65
2023/12/07 06:00:17;;;;;;;25.42;10.48;;;;;;;-6.33;100.00;100576.69;5114716;28;20055;-61
2023/12/07 06:02:44;;;;;;;24.02;9.45;;;;;;;-6.61;100.00;100553.13;5114934;28;20066;-63
2023/12/07 06:05:10;;;;;;;27.17;11.20;;;;;;;-6.25;100.00;100581.75;5117069;28;20118;-61
2023/12/07 06:07:37;;;;;;;29.35;10.65;;;;;;;-6.42;100.00;100562.00;5114700;28;20055;-58
2023/12/07 06:10:05;;;;;;;30.10;11.20;;;;;;;-6.13;100.00;100562.31;5116993;28;20055;-62
2023/12/07 06:12:32;;;;;;;28.77;10.95;;;;;;;-6.12;100.00;100543.44;5114251;28;20051;-64
2023/12/07 06:14:58;;;;;;;22.33;8.68;;;;;;;-6.13;100.00;100507.09;5116653;28;20101;-62
2023/12/07 06:17:24;;;;;;;33.88;11.20;;;;;;;-6.14;100.00;100500.13;5114358;28;20078;-64
2023/12/07 06:19:51;;;;;;;23.85;10.40;;;;;;;-6.23;100.00;100486.28;5116805;28;20047;-59
2023/12/07 06:22:17;;;;;;;30.92;11.05;;;;;;;-6.39;100.00;100468.16;5114205;28;20093;-63
2023/12/07 06:24:44;;;;;;;28.75;10.43;;;;;;;-6.51;100.00;100477.94;5116964;28;20121;-65
2023/12/07 06:27:11;;;;;;;20.80;9.50;;;;;;;-6.48;100.00;100493.50;5114144;28;20145;-63
2023/12/07 06:29:38;;;;;;;35.35;16.40;;;;;;;-6.32;100.00;100511.59;5114304;28;20409;-65
2023/12/07 06:32:06;;;;;;;31.50;12.43;;;;;;;-6.02;100.00;100493.00;5116720;28;20067;-61
2023/12/07 06:34:32;;;;;;;29.63;10.68;;;;;;;-6.42;100.00;100437.41;5114012;28;20310;-59
2023/12/07 06:36:59;;;;;;;26.20;11.48;;;;;;;-6.48;100.00;100406.25;5116710;28;20082;-62
2023/12/07 06:39:25;;;;;;;24.08;11.45;;;;;;;-6.85;100.00;100386.75;5116672;28;20052;-60
2023/12/07 06:41:52;;;;;;;22.95;9.82;;;;;;;-6.43;100.00;100419.78;5120284;28;20055;-65
2023/12/07 06:44:19;;;;;;;20.92;7.75;;;;;;;-6.66;100.00;100403.59;5117916;28;20051;-62
2023/12/07 06:46:45;;;;;;;25.85;10.63;;;;;;;-6.45;100.00;100421.84;5120077;28;20052;-64
2023/12/07 06:49:12;;;;;;;23.17;9.27;;;;;;;-6.70;100.00;100403.19;5117735;28;20063;-62
2023/12/07 06:51:39;;;;;;;27.48;10.32;;;;;;;-6.66;100.00;100374.28;5120455;28;20063;-61
2023/12/07 06:54:05;;;;;;;23.73;10.23;;;;;;;-6.30;100.00;100372.59;5117552;28;20310;-63
2023/12/07 06:56:31;;;;;;;28.67;10.93;;;;;;;-6.19;100.00;100329.97;5118276;28;20387;-64
2023/12/07 06:58:58;;;;;;;29.58;11.30;;;;;;;-6.04;100.00;100289.50;5119203;28;20418;-62
2023/12/07 07:01:25;;;;;;;26.88;10.20;;;;;;;-6.26;100.00;100221.69;5117296;28;20113;-63
2023/12/07 07:03:52;;;;;;;27.17;11.00;;;;;;;-6.34;100.00;100192.63;5119893;28;20052;-60
2023/12/07 07:06:18;;;;;;;24.63;11.27;;;;;;;-6.09;100.00;100165.78;5117335;28;20056;-64
2023/12/07 07:08:44;;;;;;;26.02;10.45;;;;;;;-6.08;100.00;100117.47;5119639;28;20066;-61
2023/12/07 07:11:13;;;;;;;27.50;10.88;;;;;;;-6.21;100.00;100075.81;5117336;28;20074;-64
2023/12/07 07:13:39;;;;;;;19.83;9.02;;;;;;;-6.58;100.00;100037.88;5119641;28;20052;-59
2023/12/07 07:16:06;;;;;;;22.08;9.00;;;;;;;-6.32;100.00;100060.63;5117001;28;20440;-63
2023/12/07 07:18:33;;;;;;;23.83;9.40;;;;;;;-6.41;100.00;100078.00;5119536;28;20052;-63
2023/12/07 07:20:59;;;;;;;15.80;7.43;;;;;;;-6.32;100.00;100057.94;5117134;28;20413;-65
2023/12/07 07:23:26;;;;;;;15.48;7.90;;;;;;;-6.34;100.00;100048.53;5118999;28;20109;-59
2023/12/07 07:25:52;;;;;;;25.70;10.35;;;;;;;-6.14;100.00;100061.53;5118099;28;20067;-62
2023/12/07 07:28:20;;;;;;;25.73;10.25;;;;;;;-5.99;100.00;100053.88;5117021;28;20056;-64
2023/12/07 07:30:46;;;;;;;31.67;11.65;;;;;;;-6.05;100.00;100007.56;5119068;28;20055;-64
2023/12/07 07:33:13;;;;;;;29.08;11.45;;;;;;;-5.74;100.00;99968.09;5116952;28;20091;-63
2023/12/07 07:35:40;;;;;;;38.50;12.18;;;;;;;-5.69;100.00;99912.91;5119114;28;20070;-61
2023/12/07 07:38:06;;;;;;;25.83;10.82;;;;;;;-5.68;100.00;99863.78;5116721;28;20421;-64
2023/12/07 07:40:32;;;;;;;30.90;10.95;;;;;;;-5.74;100.00;99811.31;5119043;28;20071;-60
2023/12/07 07:42:59;;;;;;;20.60;8.45;;;;;;;-6.08;100.00;99786.47;5116639;28;20051;-63
2023/12/07 07:45:25;;;;;;;18.73;7.65;;;;;;;-5.99;100.00;99787.72;5118851;28;20070;-64
2023/12/07 07:47:52;;;;;;;25.60;11.10;;;;;;;-5.94;100.00;99790.44;5116580;28;20047;-61
2023/12/07 07:50:18;;;;;;;20.23;8.95;;;;;;;-5.77;100.00;99787.75;5118336;28;20167;-62
2023/12/07 07:52:45;;;;;;;22.92;10.60;;;;;;;-5.67;100.00;99755.06;5116509;28;20071;-61
2023/12/07 07:55:12;;;;;;;23.38;8.93;;;;;;;-5.88;100.00;99745.94;5116655;28;20120;-62
2023/12/07 07:57:39;;;;;;;29.85;11.88;;;;;;;-5.58;100.00;99758.94;5118878;28;20116;-61
2023/12/07 08:00:08;;;;;;;28.77;8.20;;;;;;;-5.86;100.00;99714.47;5116353;28;20442;-64
2023/12/07 08:02:34;;;;;;;28.27;10.18;;;;;;;-5.57;100.00;99751.75;5118878;28;20056;-64
2023/12/07 08:05:01;;;;;;;22.27;10.20;;;;;;;-5.99;100.00;99712.16;5116556;28;20087;-64
2023/12/07 08:07:27;;;;;;;21.02;9.80;;;;;;;-5.46;100.00;99734.81;5118913;28;20090;-62
2023/12/07 08:09:54;;;;;;;25.30;10.05;;;;;;;-5.51;100.00;99705.34;5116518;28;20094;-64
2023/12/07 08:12:22;;;;;;;24.55;10.40;;;;;;;-5.16;100.00;99696.16;5118754;28;20087;-65
2023/12/07 08:14:49;;;;;;;19.13;7.95;;;;;;;-5.09;100.00;99648.69;5116220;28;20150;-65
2023/12/07 08:17:15;;;;;;;21.13;8.80;;;;;;;-5.14;100.00;99625.38;5119023;28;20090;-65
2023/12/07 08:19:42;;;;;;;19.83;9.52;;;;;;;-5.04;100.00;99604.09;5116248;28;20052;-66
2023/12/07 08:22:09;;;;;;;16.95;8.82;;;;;;;-5.69;100.00;99578.25;5116295;28;20366;-57
2023/12/07 08:24:36;;;;;;;26.95;9.57;;;;;;;-5.14;100.00;99614.69;5118195;28;20055;-60
2023/12/07 08:27:04;;;;;;;26.67;9.02;;;;;;;-5.06;100.00;99597.41;5115984;28;20051;-63
2023/12/07 08:29:31;;;;;;;21.42;8.63;;;;;;;-5.37;100.00;99572.19;5117886;28;20062;-58
2023/12/07 08:31:57;;;;;;;13.45;7.30;;;;;;;-5.64;100.00;99575.63;5115596;28;20487;-61
2023/12/07 08:34:24;;;;;;;19.17;9.63;;;;;;;-5.61;100.00;99609.03;5118218;28;20379;-64
2023/12/07 08:36:50;;;;;;;17.48;7.38;;;;;;;-5.62;100.00;99636.81;5115584;28;20059;-63
2023/12/07 08:39:17;;;;;;;19.88;9.30;;;;;;;-5.21;100.00;99638.13;5118198;28;20067;-60
2023/12/07 08:41:43;;;;;;;22.73;10.18;;;;;;;-5.03;100.00;99620.94;5115641;28;20108;-63
2023/12/07 08:44:11;;;;;;;19.48;8.75;;;;;;;-5.24;100.00;99599.34;5118214;28;20056;-63
2023/12/07 08:46:37;;;;;;;22.17;9.55;;;;;;;-4.82;100.00;99593.34;5115820;28;20375;-59
2023/12/07 08:49:04;;;;;;;23.00;8.68;;;;;;;-4.96;100.00;99576.13;5116612;28;20342;-66
2023/12/07 08:51:30;;;;;;;18.25;7.03;;;;;;;-5.11;100.00;99559.91;5117754;28;20105;-62
2023/12/07 08:53:56;;;;;;;21.42;8.38;;;;;;;-4.70;100.00;99550.38;5115847;28;20056;-58
2023/12/07 08:56:23;;;;;;;17.67;8.05;;;;;;;-4.79;100.00;99536.69;5117831;28;20124;-62
2023/12/07 08:58:50;;;;;;;20.98;8.25;;;;;;;-5.37;100.00;99522.22;5115471;28;20134;-63
2023/12/07 09:01:17;;;;;;;20.15;8.60;;;;;;;-5.16;100.00;99535.78;5116534;28;20383;-60
2023/12/07 09:03:43;;;;;;;21.83;9.55;;;;;;;-4.72;100.00;99533.00;5115506;28;20079;-63
2023/12/07 09:06:09;;;;;;;30.55;8.70;;;;;;;-4.83;100.00;99514.19;5117914;28;20317;-65
2023/12/07 09:08:36;;;;;;;19.40;8.57;;;;;;;-5.29;100.00;99511.09;5115391;28;20055;-62
2023/12/07 09:11:03;;;;;;;19.02;7.93;;;;;;;-4.84;100.00;99509.88;5118034;28;20383;-58
2023/12/07 09:13:30;;;;;;;18.25;8.57;;;;;;;-4.70;100.00;99504.91;5115058;28;20059;-63
2023/12/07 09:15:56;;;;;;;10.80;5.60;;;;;;;-5.38;100.00;99499.25;5117170;28;20048;-58
2023/12/07 09:18:24;;;;;;;16.92;8.68;;;;;;;-4.77;100.00;99509.66;5115574;28;20121;-63
2023/12/07 09:20:51;;;;;;;17.80;8.27;;;;;;;-5.17;100.00;99502.91;5115419;28;20124;-65
2023/12/07 09:23:17;;;;;;;19.48;8.55;;;;;;;-4.76;100.00;99500.59;5117298;28;20086;-60
2023/12/07 09:25:43;;;;;;;18.65;6.95;;;;;;;-5.10;100.00;99492.00;5114834;28;20059;-62
2023/12/07 09:28:10;;;;;;;11.70;5.82;;;;;;;-5.25;100.00;99498.03;5117177;28;20374;-62
2023/12/07 09:30:36;;;;;;;18.63;7.32;;;;;;;-4.92;100.00;99501.53;5114924;28;20078;-59
2023/12/07 09:33:03;;;;;;;12.38;6.05;;;;;;;-5.10;100.00;99498.16;5117242;28;20180;-62
2023/12/07 09:35:30;;;;;;;16.15;8.13;;;;;;;-5.03;100.00;99497.94;5114779;28;20061;-57
2023/12/07 09:37:56;;;;;;;26.23;10.40;;;;;;;-5.03;100.00;99493.44;5117372;28;20256;-64
2023/12/07 09:40:25;;;;;;;15.57;7.53;;;;;;;-4.84;100.00;99496.50;5114784;28;20048;-63
2023/12/07 09:42:52;;;;;;;29.92;10.07;;;;;;;-4.91;100.00;99490.56;5117136;28;20083;-64
2023/12/07 09:45:19;;;;;;;20.38;8.95;;;;;;;-4.93;100.00;99490.03;5114548;28;20398;-67
2023/12/07 09:47:48;;;;;;;22.15;9.00;;;;;;;-4.85;100.00;99489.56;5114652;28;20056;-64
2023/12/07 09:50:17;;;;;;;27.23;11.32;;;;;;;-4.49;100.00;99487.16;5116885;28;20137;-67
2023/12/07 09:52:45;;;;;;;24.23;9.27;;;;;;;-4.77;100.00;99489.06;5114634;28;20056;-69
2023/12/07 09:55:11;;;;;;;15.23;6.93;;;;;;;-5.09;100.00;99497.13;5116765;28;20150;-65
2023/12/07 09:57:38;;;;;;;14.85;6.93;;;;;;;-4.81;100.00;99492.53;5114525;28;20055;-65
2023/12/07 10:00:07;;;;;;;16.60;7.90;;;;;;;-4.84;100.00;99493.03;5117024;28;20059;-64
2023/12/07 10:02:36;;;;;;;20.55;8.85;;;;;;;-5.39;100.00;99486.94;5114563;28;20051;-67
2023/12/07 10:05:07;;;;;;;31.00;12.45;;;;;;;-4.98;100.00;99485.44;5116711;28;20055;-59
2023/12/07 10:07:35;;;;;;;14.10;7.65;;;;;;;-5.04;100.00;99491.00;5114320;28;20142;-61
2023/12/07 10:10:03;;;;;;;13.52;6.75;;;;;;;-5.07;100.00;99480.81;5115964;28;20051;-62
2023/12/07 10:12:29;;;;;;;21.05;7.30;;;;;;;-5.15;100.00;99484.75;5115639;28;20055;-65
2023/12/07 10:14:55;;;;;;;18.25;6.75;;;;;;;-4.86;100.00;99487.97;5114065;28;20060;-68
2023/12/07 10:17:22;;;;;;;18.60;8.10;;;;;;;-4.86;100.00;99487.16;5116712;28;20140;-59
2023/12/07 10:20:08;;;;;;;18.58;7.97;;;;;;;-5.01;100.00;99480.59;5113973;28;20052;-64
2023/12/07 10:22:35;;;;;;;13.75;5.05;;;;;;;-5.16;100.00;99485.84;5116640;28;20433;-62
2023/12/07 10:25:02;;;;;;;15.43;7.30;;;;;;;-5.01;100.00;99485.94;5113921;28;20113;-66
2023/12/07 10:27:29;;;;;;;16.52;7.40;;;;;;;-4.76;100.00;99479.22;5116620;28;20316;-65
2023/12/07 10:29:57;;;;;;;16.67;6.13;;;;;;;-5.22;100.00;99493.00;5114022;28;20143;-65
2023/12/07 10:32:24;;;;;;;19.80;8.65;;;;;;;-4.87;100.00;99490.88;5116610;28;20063;-64
2023/12/07 10:34:50;;;;;;;13.23;6.63;;;;;;;-4.88;100.00;99481.25;5115667;28;20097;-68
2023/12/07 10:37:16;;;;;;;18.77;7.63;;;;;;;-5.09;100.00;99494.44;5113999;28;20114;-65
2023/12/07 10:39:43;;;;;;;12.48;5.90;;;;;;;-4.90;100.00;99484.16;5116506;28;20062;-64
2023/12/07 10:42:11;;;;;;;11.77;5.32;;;;;;;-5.18;100.00;99487.94;5113849;28;20048;-67
2023/12/07 10:44:42;;;;;;;9.52;6.03;;;;;;;-5.10;100.00;99489.34;5116133;28;20138;-63
2023/12/07 10:47:10;;;;;;;12.70;5.70;;;;;;;-4.79;100.00;99483.19;5113717;28;20048;-66
2023/12/07 10:49:40;;;;;;;15.40;7.40;;;;;;;-4.82;100.00;99488.25;5116105;28;20397;-64
2023/12/07 10:52:12;;;;;;;13.48;6.88;;;;;;;-4.77;100.00;99481.06;5113715;28;20470;-67
2023/12/07 10:54:46;;;;;;;14.20;7.47;;;;;;;-4.56;100.00;99478.53;5116461;28;20422;-66
2023/12/07 10:57:14;;;;;;;14.60;6.93;;;;;;;-4.35;100.00;99488.28;5113491;28;20051;-66
2023/12/07 10:59:44;;;;;;;14.48;6.70;;;;;;;-4.46;100.00;99485.81;5113688;28;20047;-65
2023/12/07 11:02:14;;;;;;;13.60;6.22;;;;;;;-4.58;100.00;99499.38;5115506;28;20143;-66
2023/12/07 11:04:42;;;;;;;15.75;6.82;;;;;;;-4.99;100.00;99491.84;5113368;28;20052;-64
2023/12/07 11:07:15;;;;;;;18.35;7.18;;;;;;;-4.91;100.00;99484.44;5115892;28;20495;-64
2023/12/07 11:09:48;;;;;;;10.32;5.10;;;;;;;-5.22;100.00;99498.34;5115418;28;20078;-66